sensor_id;sensor_type;location;lat;lon;timestamp;pressure;altitude;pressure_sealevel;temperature;humidity
75425;BME280;64007;50.632;13.700;2023-03-01T00:01:25;99191.81;;;-2.62;100.00
75425;BME280;64007;50.632;13.700;2023-03-01T00:03:52;99190.09;;;-2.66;100.00
75425;BME280;64007;50.632;13.700;2023-03-01T00:06:19;99194.47;;;-2.68;100.00
75425;BME280;64007;50.632;13.700;2023-03-01T00:08:45;99192.72;;;-2.67;100.00
75425;BME280;64007;50.632;13.700;2023-03-01T00:11:22;99189.22;;;-2.65;100.00
75425;BME280;64007;50.632;13.700;2023-03-01T00:13:50;99190.97;;;-2.65;100.00
75425;BME280;64007;50.632;13.700;2023-03-01T00:16:19;99196.22;;;-2.68;100.00
75425;BME280;64007;50.632;13.700;2023-03-01T00:18:46;99181.50;;;-2.72;100.00
75425;BME280;64007;50.632;13.700;2023-03-01T00:21:12;99189.31;;;-2.72;100.00
75425;BME280;64007;50.632;13.700;2023-03-01T00:23:38;99181.53;;;-2.77;100.00
75425;BME280;64007;50.632;13.700;2023-03-01T00:26:12;99171.06;;;-2.69;100.00
75425;BME280;64007;50.632;13.700;2023-03-01T00:28:39;99174.53;;;-2.69;100.00
75425;BME280;64007;50.632;13.700;2023-03-01T00:31:06;99172.78;;;-2.70;100.00
75425;BME280;64007;50.632;13.700;2023-03-01T00:33:32;99173.63;;;-2.68;100.00
75425;BME280;64007;50.632;13.700;2023-03-01T00:35:58;99172.78;;;-2.70;100.00
75425;BME280;64007;50.632;13.700;2023-03-01T00:38:25;99169.34;;;-2.72;100.00
75425;BME280;64007;50.632;13.700;2023-03-01T00:40:50;99169.38;;;-2.76;100.00
75425;BME280;64007;50.632;13.700;2023-03-01T00:43:17;99162.47;;;-2.82;100.00
75425;BME280;64007;50.632;13.700;2023-03-01T00:45:43;99160.75;;;-2.83;100.00
75425;BME280;64007;50.632;13.700;2023-03-01T00:48:09;99161.59;;;-2.83;100.00
75425;BME280;64007;50.632;13.700;2023-03-01T00:50:34;99159.03;;;-2.84;100.00
75425;BME280;64007;50.632;13.700;2023-03-01T00:53:00;99158.16;;;-2.86;100.00
75425;BME280;64007;50.632;13.700;2023-03-01T00:55:26;99152.13;;;-2.88;100.00
75425;BME280;64007;50.632;13.700;2023-03-01T00:57:52;99157.28;;;-2.85;100.00
75425;BME280;64007;50.632;13.700;2023-03-01T01:00:20;99160.78;;;-2.86;100.00
75425;BME280;64007;50.632;13.700;2023-03-01T01:02:47;99153.00;;;-2.89;100.00
75425;BME280;64007;50.632;13.700;2023-03-01T01:05:13;99149.53;;;-2.91;100.00
75425;BME280;64007;50.632;13.700;2023-03-01T01:07:39;99140.88;;;-2.90;100.00
75425;BME280;64007;50.632;13.700;2023-03-01T01:10:05;99146.91;;;-2.88;100.00
75425;BME280;64007;50.632;13.700;2023-03-01T01:12:32;99145.19;;;-2.89;100.00
75425;BME280;64007;50.632;13.700;2023-03-01T01:14:58;99144.31;;;-2.90;100.00
75425;BME280;64007;50.632;13.700;2023-03-01T01:17:24;99144.34;;;-2.93;100.00
75425;BME280;64007;50.632;13.700;2023-03-01T01:19:50;99140.91;;;-2.95;100.00
75425;BME280;64007;50.632;13.700;2023-03-01T01:22:16;99140.09;;;-3.01;100.00
75425;BME280;64007;50.632;13.700;2023-03-01T01:24:41;99143.56;;;-2.99;100.00
75425;BME280;64007;50.632;13.700;2023-03-01T01:27:07;99145.28;;;-2.98;100.00
75425;BME280;64007;50.632;13.700;2023-03-01T01:29:33;99140.91;;;-2.93;100.00
75425;BME280;64007;50.632;13.700;2023-03-01T01:31:58;99146.97;;;-2.94;100.00
75425;BME280;64007;50.632;13.700;2023-03-01T01:34:24;99144.41;;;-2.99;100.00
75425;BME280;64007;50.632;13.700;2023-03-01T01:36:52;99138.34;;;-2.99;100.00
75425;BME280;64007;50.632;13.700;2023-03-01T01:39:22;99130.53;;;-2.99;100.00
75425;BME280;64007;50.632;13.700;2023-03-01T01:41:48;99127.97;;;-3.02;100.00
75425;BME280;64007;50.632;13.700;2023-03-01T01:44:20;99131.41;;;-3.00;100.00
75425;BME280;64007;50.632;13.700;2023-03-01T01:47:00;99136.41;;;-2.76;100.00
75425;BME280;64007;50.632;13.700;2023-03-01T01:49:37;99132.97;;;-2.81;100.00
75425;BME280;64007;50.632;13.700;2023-03-01T01:52:09;99124.34;;;-2.86;100.00
75425;BME280;64007;50.632;13.700;2023-03-01T01:54:46;99115.66;;;-2.87;100.00
75425;BME280;64007;50.632;13.700;2023-03-01T01:57:31;99126.09;;;-2.88;100.00
75425;BME280;64007;50.632;13.700;2023-03-01T02:00:02;99122.69;;;-2.93;100.00
75425;BME280;64007;50.632;13.700;2023-03-01T02:02:29;99117.50;;;-2.95;100.00
75425;BME280;64007;50.632;13.700;2023-03-01T02:05:50;99122.72;;;-2.96;100.00
75425;BME280;64007;50.632;13.700;2023-03-01T02:07:48;99110.53;;;-2.94;100.00
75425;BME280;64007;50.632;13.700;2023-03-01T02:10:15;99113.19;;;-2.97;100.00
75425;BME280;64007;50.632;13.700;2023-03-01T02:12:41;99102.88;;;-3.08;100.00
75425;BME280;64007;50.632;13.700;2023-03-01T02:15:08;99093.41;;;-3.13;100.00
75425;BME280;64007;50.632;13.700;2023-03-01T02:17:35;99109.06;;;-3.20;100.00
75425;BME280;64007;50.632;13.700;2023-03-01T02:22:46;99107.31;;;-3.21;100.00
75425;BME280;64007;50.632;13.700;2023-03-01T02:30:37;99104.78;;;-3.30;100.00
75425;BME280;64007;50.632;13.700;2023-03-01T02:33:04;99104.78;;;-3.30;100.00
75425;BME280;64007;50.632;13.700;2023-03-01T02:35:39;99105.66;;;-3.31;100.00
75425;BME280;64007;50.632;13.700;2023-03-01T02:38:07;99096.16;;;-3.36;100.00
75425;BME280;64007;50.632;13.700;2023-03-01T02:40:34;99094.44;;;-3.36;100.00
75425;BME280;64007;50.632;13.700;2023-03-01T02:43:04;99087.50;;;-3.37;100.00
75425;BME280;64007;50.632;13.700;2023-03-01T02:45:33;99078.81;;;-3.34;100.00
75425;BME280;64007;50.632;13.700;2023-03-01T02:47:59;99096.16;;;-3.35;100.00
75425;BME280;64007;50.632;13.700;2023-03-01T02:53:13;99084.84;;;-3.31;100.00
75425;BME280;64007;50.632;13.700;2023-03-01T02:55:41;99096.94;;;-3.27;100.00
75425;BME280;64007;50.632;13.700;2023-03-01T02:58:07;99098.63;;;-3.17;100.00
75425;BME280;64007;50.632;13.700;2023-03-01T03:00:39;99100.34;;;-3.16;100.00
75425;BME280;64007;50.632;13.700;2023-03-01T03:03:06;99084.78;;;-3.19;100.00
75425;BME280;64007;50.632;13.700;2023-03-01T03:05:32;99085.63;;;-3.17;100.00
75425;BME280;64007;50.632;13.700;2023-03-01T03:08:01;99080.47;;;-3.24;100.00
75425;BME280;64007;50.632;13.700;2023-03-01T03:10:31;99076.13;;;-3.24;100.00
75425;BME280;64007;50.632;13.700;2023-03-01T03:13:00;99063.97;;;-3.22;100.00
75425;BME280;64007;50.632;13.700;2023-03-01T03:15:27;99058.81;;;-3.28;100.00
75425;BME280;64007;50.632;13.700;2023-03-01T03:17:53;99057.16;;;-3.35;100.00
75425;BME280;64007;50.632;13.700;2023-03-01T03:20:22;99064.97;;;-3.35;100.00
75425;BME280;64007;50.632;13.700;2023-03-01T03:22:51;99058.03;;;-3.37;100.00
75425;BME280;64007;50.632;13.700;2023-03-01T03:25:18;99058.09;;;-3.42;100.00
75425;BME280;64007;50.632;13.700;2023-03-01T03:27:46;99045.94;;;-3.41;100.00
75425;BME280;64007;50.632;13.700;2023-03-01T03:30:15;99052.03;;;-3.42;100.00
75425;BME280;64007;50.632;13.700;2023-03-01T03:32:42;99051.97;;;-3.38;100.00
75425;BME280;64007;50.632;13.700;2023-03-01T03:35:25;99053.72;;;-3.37;100.00
75425;BME280;64007;50.632;13.700;2023-03-01T03:37:51;99048.44;;;-3.31;100.00
75425;BME280;64007;50.632;13.700;2023-03-01T03:40:36;99046.69;;;-3.27;100.00
75425;BME280;64007;50.632;13.700;2023-03-01T03:43:08;99047.56;;;-3.28;100.00
75425;BME280;64007;50.632;13.700;2023-03-01T03:45:35;99057.13;;;-3.32;100.00
75425;BME280;64007;50.632;13.700;2023-03-01T03:48:02;99050.16;;;-3.30;100.00
75425;BME280;64007;50.632;13.700;2023-03-01T03:50:28;99057.13;;;-3.32;100.00
75425;BME280;64007;50.632;13.700;2023-03-01T03:52:54;99048.47;;;-3.34;100.00
75425;BME280;64007;50.632;13.700;2023-03-01T03:55:20;99045.91;;;-3.37;100.00
75425;BME280;64007;50.632;13.700;2023-03-01T03:57:47;99045.03;;;-3.37;100.00
75425;BME280;64007;50.632;13.700;2023-03-01T04:00:19;99048.53;;;-3.38;100.00
75425;BME280;64007;50.632;13.700;2023-03-01T04:02:47;99058.06;;;-3.39;100.00
75425;BME280;64007;50.632;13.700;2023-03-01T04:05:15;99064.13;;;-3.40;100.00
75425;BME280;64007;50.632;13.700;2023-03-01T04:07:42;99060.69;;;-3.42;100.00
75425;BME280;64007;50.632;13.700;2023-03-01T04:10:11;99052.91;;;-3.45;100.00
75425;BME280;64007;50.632;13.700;2023-03-01T04:12:37;99056.38;;;-3.46;100.00
75425;BME280;64007;50.632;13.700;2023-03-01T04:15:05;99062.47;;;-3.47;100.00
75425;BME280;64007;50.632;13.700;2023-03-01T04:17:43;99072.00;;;-3.49;100.00
75425;BME280;64007;50.632;13.700;2023-03-01T04:20:11;99072.09;;;-3.58;100.00
75425;BME280;64007;50.632;13.700;2023-03-01T04:22:38;99078.16;;;-3.61;100.00
75425;BME280;64007;50.632;13.700;2023-03-01T04:25:04;99078.19;;;-3.65;100.00
75425;BME280;64007;50.632;13.700;2023-03-01T04:27:35;99070.47;;;-3.78;100.00
75425;BME280;64007;50.632;13.700;2023-03-01T04:30:04;99061.84;;;-3.83;100.00
75425;BME280;64007;50.632;13.700;2023-03-01T04:32:30;99059.25;;;-3.80;100.00
75425;BME280;64007;50.632;13.700;2023-03-01T04:34:56;99060.97;;;-3.82;100.00
75425;BME280;64007;50.632;13.700;2023-03-01T04:37:22;99059.25;;;-3.83;100.00
75425;BME280;64007;50.632;13.700;2023-03-01T04:39:49;99061.06;;;-3.91;100.00
75425;BME280;64007;50.632;13.700;2023-03-01T04:42:15;99059.34;;;-3.95;100.00
75425;BME280;64007;50.632;13.700;2023-03-01T04:44:42;99049.78;;;-3.91;100.00
75425;BME280;64007;50.632;13.700;2023-03-01T04:47:09;99048.97;;;-3.95;100.00
75425;BME280;64007;50.632;13.700;2023-03-01T04:49:34;99044.66;;;-3.97;100.00
75425;BME280;64007;50.632;13.700;2023-03-01T04:52:00;99048.13;;;-3.98;100.00
75425;BME280;64007;50.632;13.700;2023-03-01T04:54:32;99052.44;;;-3.99;100.00
75425;BME280;64007;50.632;13.700;2023-03-01T04:56:58;99048.94;;;-3.92;100.00
75425;BME280;64007;50.632;13.700;2023-03-01T04:59:24;99050.66;;;-3.91;100.00
75425;BME280;64007;50.632;13.700;2023-03-01T05:01:52;99055.00;;;-3.93;100.00
75425;BME280;64007;50.632;13.700;2023-03-01T05:04:21;99050.69;;;-3.97;100.00
75425;BME280;64007;50.632;13.700;2023-03-01T05:06:47;99048.97;;;-4.02;100.00
75425;BME280;64007;50.632;13.700;2023-03-01T05:09:13;99048.97;;;-4.01;100.00
75425;BME280;64007;50.632;13.700;2023-03-01T05:11:38;99050.72;;;-4.00;100.00
75425;BME280;64007;50.632;13.700;2023-03-01T05:14:06;99054.16;;;-3.98;100.00
75425;BME280;64007;50.632;13.700;2023-03-01T05:16:32;99049.81;;;-4.00;100.00
75425;BME280;64007;50.632;13.700;2023-03-01T05:18:59;99048.97;;;-3.98;100.00
75425;BME280;64007;50.632;13.700;2023-03-01T05:21:25;99049.00;;;-4.04;100.00
75425;BME280;64007;50.632;13.700;2023-03-01T05:23:51;99049.03;;;-4.12;100.00
75425;BME280;64007;50.632;13.700;2023-03-01T05:26:19;99050.78;;;-4.15;100.00
75425;BME280;64007;50.632;13.700;2023-03-01T05:28:47;99051.63;;;-4.08;100.00
75425;BME280;64007;50.632;13.700;2023-03-01T05:31:13;99054.19;;;-4.04;100.00
75425;BME280;64007;50.632;13.700;2023-03-01T05:33:40;99057.66;;;-4.05;100.00
75425;BME280;64007;50.632;13.700;2023-03-01T05:36:07;99053.31;;;-4.00;100.00
75425;BME280;64007;50.632;13.700;2023-03-01T05:38:35;99050.72;;;-4.06;100.00
75425;BME280;64007;50.632;13.700;2023-03-01T05:41:02;99049.88;;;-4.10;100.00
75425;BME280;64007;50.632;13.700;2023-03-01T05:43:30;99052.53;;;-4.16;100.00
75425;BME280;64007;50.632;13.700;2023-03-01T05:45:57;99056.84;;;-4.15;100.00
75425;BME280;64007;50.632;13.700;2023-03-01T05:48:23;99061.19;;;-4.15;100.00
75425;BME280;64007;50.632;13.700;2023-03-01T05:50:48;99066.34;;;-4.12;100.00
75425;BME280;64007;50.632;13.700;2023-03-01T05:53:19;99058.53;;;-4.07;100.00
75425;BME280;64007;50.632;13.700;2023-03-01T05:55:48;99052.50;;;-4.11;100.00
75425;BME280;64007;50.632;13.700;2023-03-01T05:58:18;99058.56;;;-4.14;100.00
75425;BME280;64007;50.632;13.700;2023-03-01T06:00:47;99062.03;;;-4.15;100.00
75425;BME280;64007;50.632;13.700;2023-03-01T06:03:15;99066.41;;;-4.18;100.00
75425;BME280;64007;50.632;13.700;2023-03-01T06:05:42;99067.28;;;-4.21;100.00
75425;BME280;64007;50.632;13.700;2023-03-01T06:08:10;99069.00;;;-4.18;100.00
75425;BME280;64007;50.632;13.700;2023-03-01T06:10:36;99066.41;;;-4.20;100.00
75425;BME280;64007;50.632;13.700;2023-03-01T06:13:02;99061.19;;;-4.18;100.00
75425;BME280;64007;50.632;13.700;2023-03-01T06:15:28;99064.63;;;-4.13;100.00
75425;BME280;64007;50.632;13.700;2023-03-01T06:17:54;99068.97;;;-4.14;100.00
75425;BME280;64007;50.632;13.700;2023-03-01T06:20:24;99062.03;;;-4.13;100.00
75425;BME280;64007;50.632;13.700;2023-03-01T06:22:50;99060.28;;;-4.10;100.00
75425;BME280;64007;50.632;13.700;2023-03-01T06:25:19;99061.13;;;-4.06;100.00
75425;BME280;64007;50.632;13.700;2023-03-01T06:27:45;99058.50;;;-4.01;100.00
75425;BME280;64007;50.632;13.700;2023-03-01T06:30:13;99061.09;;;-3.97;100.00
75425;BME280;64007;50.632;13.700;2023-03-01T06:32:40;99056.72;;;-3.92;100.00
75425;BME280;64007;50.632;13.700;2023-03-01T06:35:10;99062.75;;;-3.87;100.00
75425;BME280;64007;50.632;13.700;2023-03-01T06:37:36;99052.31;;;-3.81;100.00
75425;BME280;64007;50.632;13.700;2023-03-01T06:40:03;99059.19;;;-3.73;100.00
75425;BME280;64007;50.632;13.700;2023-03-01T06:42:37;99059.13;;;-3.64;100.00
75425;BME280;64007;50.632;13.700;2023-03-01T06:45:05;99055.59;;;-3.54;100.00
75425;BME280;64007;50.632;13.700;2023-03-01T06:47:32;99065.88;;;-3.42;100.00
75425;BME280;64007;50.632;13.700;2023-03-01T06:50:02;99060.63;;;-3.36;100.00
75425;BME280;64007;50.632;13.700;2023-03-01T06:52:28;99072.69;;;-3.29;100.00
75425;BME280;64007;50.632;13.700;2023-03-01T06:54:54;99073.47;;;-3.16;100.00
75425;BME280;64007;50.632;13.700;2023-03-01T06:57:19;99078.63;;;-3.10;100.00
75425;BME280;64007;50.632;13.700;2023-03-01T06:59:47;99066.38;;;-3.00;100.00
75425;BME280;64007;50.632;13.700;2023-03-01T07:02:13;99066.31;;;-2.94;100.00
75425;BME280;64007;50.632;13.700;2023-03-01T07:04:39;99065.38;;;-2.87;100.00
75425;BME280;64007;50.632;13.700;2023-03-01T07:07:05;99066.63;;;-2.45;100.00
75425;BME280;64007;50.632;13.700;2023-03-01T07:09:31;99055.91;;;-2.21;99.91
75425;BME280;64007;50.632;13.700;2023-03-01T07:11:57;99065.34;;;-2.12;99.68
75425;BME280;64007;50.632;13.700;2023-03-01T07:14:23;99057.63;;;-2.18;100.00
75425;BME280;64007;50.632;13.700;2023-03-01T07:16:52;99060.94;;;-2.07;100.00
75425;BME280;64007;50.632;13.700;2023-03-01T07:19:21;99068.97;;;-2.24;100.00
75425;BME280;64007;50.632;13.700;2023-03-01T07:21:47;99071.66;;;-2.28;100.00
75425;BME280;64007;50.632;13.700;2023-03-01T07:24:13;99078.59;;;-2.27;100.00
75425;BME280;64007;50.632;13.700;2023-03-01T07:26:39;99070.63;;;-2.16;100.00
75425;BME280;64007;50.632;13.700;2023-03-01T07:29:07;99071.94;;;-1.85;100.00
75425;BME280;64007;50.632;13.700;2023-03-01T07:31:34;99077.00;;;-1.76;100.00
75425;BME280;64007;50.632;13.700;2023-03-01T07:34:01;99072.72;;;-1.78;100.00
75425;BME280;64007;50.632;13.700;2023-03-01T07:36:27;99075.06;;;-1.63;100.00
75425;BME280;64007;50.632;13.700;2023-03-01T07:38:53;99067.25;;;-1.63;100.00
75425;BME280;64007;50.632;13.700;2023-03-01T07:41:21;99071.72;;;-1.70;100.00
75425;BME280;64007;50.632;13.700;2023-03-01T07:43:47;99068.75;;;-1.47;100.00
75425;BME280;64007;50.632;13.700;2023-03-01T07:46:12;99066.06;;;-1.42;96.50
75425;BME280;64007;50.632;13.700;2023-03-01T07:48:38;99070.47;;;-1.46;95.78
75425;BME280;64007;50.632;13.700;2023-03-01T07:51:06;99068.44;;;-1.27;97.02
75425;BME280;64007;50.632;13.700;2023-03-01T07:53:33;99066.75;;;-1.31;96.97
75425;BME280;64007;50.632;13.700;2023-03-01T07:58:28;99066.06;;;-1.41;100.00
75425;BME280;64007;50.632;13.700;2023-03-01T08:00:53;99058.66;;;-1.14;100.00
75425;BME280;64007;50.632;13.700;2023-03-01T08:03:19;99060.97;;;-0.98;100.00
75425;BME280;64007;50.632;13.700;2023-03-01T08:05:45;99054.59;;;-0.83;100.00
75425;BME280;64007;50.632;13.700;2023-03-01T08:08:11;99047.84;;;-0.95;100.00
75425;BME280;64007;50.632;13.700;2023-03-01T08:10:36;99045.94;;;-0.85;100.00
75425;BME280;64007;50.632;13.700;2023-03-01T08:13:02;99037.13;;;-0.78;100.00
75425;BME280;64007;50.632;13.700;2023-03-01T08:15:28;99034.59;;;-0.84;100.00
75425;BME280;64007;50.632;13.700;2023-03-01T08:17:53;99039.50;;;-0.66;100.00
75425;BME280;64007;50.632;13.700;2023-03-01T08:20:19;99035.91;;;-0.61;100.00
75425;BME280;64007;50.632;13.700;2023-03-01T08:22:45;99037.56;;;-0.57;100.00
75425;BME280;64007;50.632;13.700;2023-03-01T08:25:10;99042.47;;;-0.42;97.85
75425;BME280;64007;50.632;13.700;2023-03-01T08:27:36;99035.94;;;-0.20;95.03
75425;BME280;64007;50.632;13.700;2023-03-01T08:30:02;99033.25;;;-0.17;100.00
75425;BME280;64007;50.632;13.700;2023-03-01T08:32:29;99035.81;;;-0.15;97.82
75425;BME280;64007;50.632;13.700;2023-03-01T08:34:54;99036.38;;;-0.01;100.00
75425;BME280;64007;50.632;13.700;2023-03-01T08:37:20;99034.31;;;0.15;100.00
75425;BME280;64007;50.632;13.700;2023-03-01T08:39:46;99029.84;;;0.18;96.22
75425;BME280;64007;50.632;13.700;2023-03-01T08:42:12;99027.84;;;0.29;88.71
75425;BME280;64007;50.632;13.700;2023-03-01T08:44:37;99022.22;;;0.46;79.72
75425;BME280;64007;50.632;13.700;2023-03-01T08:47:03;99024.84;;;0.46;78.80
75425;BME280;64007;50.632;13.700;2023-03-01T08:49:30;99019.69;;;0.43;78.37
75425;BME280;64007;50.632;13.700;2023-03-01T08:51:57;99017.91;;;0.45;77.03
75425;BME280;64007;50.632;13.700;2023-03-01T08:54:23;99022.22;;;0.46;76.25
75425;BME280;64007;50.632;13.700;2023-03-01T08:56:51;99017.91;;;0.45;75.20
75425;BME280;64007;50.632;13.700;2023-03-01T08:59:17;99022.66;;;0.63;76.60
75425;BME280;64007;50.632;13.700;2023-03-01T09:01:44;99015.41;;;0.75;76.38
75425;BME280;64007;50.632;13.700;2023-03-01T09:04:10;99005.56;;;0.84;75.46
75425;BME280;64007;50.632;13.700;2023-03-01T09:06:37;99008.00;;;0.92;75.17
75425;BME280;64007;50.632;13.700;2023-03-01T09:09:06;99006.78;;;1.04;72.16
75425;BME280;64007;50.632;13.700;2023-03-01T09:11:33;99008.22;;;1.15;73.50
75425;BME280;64007;50.632;13.700;2023-03-01T09:13:59;99007.38;;;1.46;71.12
75425;BME280;64007;50.632;13.700;2023-03-01T09:16:24;99011.81;;;1.44;69.17
75425;BME280;64007;50.632;13.700;2023-03-01T09:18:51;99014.66;;;1.67;69.56
75425;BME280;64007;50.632;13.700;2023-03-01T09:21:19;99009.63;;;1.58;68.45
75425;BME280;64007;50.632;13.700;2023-03-01T09:23:47;99011.84;;;1.73;69.51
75425;BME280;64007;50.632;13.700;2023-03-01T09:26:17;99018.78;;;2.04;68.48
75425;BME280;64007;50.632;13.700;2023-03-01T09:28:45;99006.94;;;1.91;68.81
75425;BME280;64007;50.632;13.700;2023-03-01T09:31:12;99005.03;;;1.96;68.44
75425;BME280;64007;50.632;13.700;2023-03-01T09:33:39;98999.34;;;2.11;65.69
75425;BME280;64007;50.632;13.700;2023-03-01T09:36:08;98994.56;;;2.24;65.26
75425;BME280;64007;50.632;13.700;2023-03-01T09:38:34;98988.84;;;2.11;64.45
75425;BME280;64007;50.632;13.700;2023-03-01T09:41:00;98997.44;;;2.16;64.72
75425;BME280;64007;50.632;13.700;2023-03-01T09:43:45;98992.19;;;2.16;67.24
75425;BME280;64007;50.632;13.700;2023-03-01T09:46:14;98980.59;;;2.49;66.09
75425;BME280;64007;50.632;13.700;2023-03-01T09:48:51;98988.06;;;2.62;64.76
75425;BME280;64007;50.632;13.700;2023-03-01T09:51:23;98980.56;;;2.76;62.68
75425;BME280;64007;50.632;13.700;2023-03-01T09:53:51;98979.88;;;2.71;64.13
75425;BME280;64007;50.632;13.700;2023-03-01T09:56:28;98973.22;;;2.61;59.86
75425;BME280;64007;50.632;13.700;2023-03-01T10:04:48;98982.56;;;2.69;62.59
75425;BME280;64007;50.632;13.700;2023-03-01T10:07:40;98973.56;;;2.76;61.35
75425;BME280;64007;50.632;13.700;2023-03-01T10:10:32;98974.91;;;3.13;62.71
75425;BME280;64007;50.632;13.700;2023-03-01T10:13:04;98974.53;;;3.24;63.24
75425;BME280;64007;50.632;13.700;2023-03-01T10:15:41;98973.47;;;3.29;61.00
75425;BME280;64007;50.632;13.700;2023-03-01T10:18:25;98981.47;;;3.26;60.17
75425;BME280;64007;50.632;13.700;2023-03-01T10:20:57;98979.03;;;3.20;58.46
75425;BME280;64007;50.632;13.700;2023-03-01T10:23:24;98978.25;;;3.41;61.44
75425;BME280;64007;50.632;13.700;2023-03-01T10:29:07;98972.59;;;3.75;56.77
75425;BME280;64007;50.632;13.700;2023-03-01T10:31:43;98963.19;;;3.92;58.55
75425;BME280;64007;50.632;13.700;2023-03-01T10:34:16;98961.03;;;4.03;55.83
75425;BME280;64007;50.632;13.700;2023-03-01T10:36:44;98954.16;;;3.99;55.74
75425;BME280;64007;50.632;13.700;2023-03-01T10:39:15;98958.19;;;3.86;55.28
75425;BME280;64007;50.632;13.700;2023-03-01T10:42:18;98946.50;;;3.93;56.03
75425;BME280;64007;50.632;13.700;2023-03-01T10:44:48;98945.97;;;4.06;56.11
75425;BME280;64007;50.632;13.700;2023-03-01T10:50:04;98940.09;;;4.44;57.37
75425;BME280;64007;50.632;13.700;2023-03-01T10:52:37;98933.25;;;4.38;57.23
75425;BME280;64007;50.632;13.700;2023-03-01T10:55:30;98932.13;;;4.45;55.90
75425;BME280;64007;50.632;13.700;2023-03-01T10:58:20;98932.72;;;4.72;55.53
75425;BME280;64007;50.632;13.700;2023-03-01T11:00:56;98929.44;;;4.87;55.24
75425;BME280;64007;50.632;13.700;2023-03-01T11:03:30;98922.34;;;4.89;56.55
75425;BME280;64007;50.632;13.700;2023-03-01T11:11:30;98909.66;;;4.77;52.33
75425;BME280;64007;50.632;13.700;2023-03-01T11:14:16;98911.09;;;5.04;53.48
75425;BME280;64007;50.632;13.700;2023-03-01T11:16:48;98911.34;;;5.19;53.29
75425;BME280;64007;50.632;13.700;2023-03-01T11:19:18;98903.03;;;5.28;51.32
75425;BME280;64007;50.632;13.700;2023-03-01T11:24:53;98902.19;;;5.46;52.11
75425;BME280;64007;50.632;13.700;2023-03-01T11:27:24;98897.91;;;5.44;51.27
75425;BME280;64007;50.632;13.700;2023-03-01T11:30:02;98893.06;;;5.53;50.74
75425;BME280;64007;50.632;13.700;2023-03-01T11:32:41;98896.47;;;5.55;52.13
75425;BME280;64007;50.632;13.700;2023-03-01T11:37:41;98896.34;;;5.96;51.70
75425;BME280;64007;50.632;13.700;2023-03-01T11:58:05;98859.81;;;6.92;49.95
75425;BME280;64007;50.632;13.700;2023-03-01T12:08:31;98860.78;;;7.07;48.42
75425;BME280;64007;50.632;13.700;2023-03-01T12:25:22;98836.59;;;7.93;47.70
75425;BME280;64007;50.632;13.700;2023-03-01T12:28:08;98830.38;;;8.24;45.03
75425;BME280;64007;50.632;13.700;2023-03-01T12:35:58;98826.66;;;8.72;45.96
75425;BME280;64007;50.632;13.700;2023-03-01T12:39:14;98826.44;;;8.47;44.50
75425;BME280;64007;50.632;13.700;2023-03-01T12:50:01;98817.84;;;9.43;44.42
75425;BME280;64007;50.632;13.700;2023-03-01T12:52:56;98803.47;;;9.74;41.17
75425;BME280;64007;50.632;13.700;2023-03-01T12:55:40;98802.25;;;9.92;40.13
75425;BME280;64007;50.632;13.700;2023-03-01T13:01:08;98797.09;;;10.30;40.35
75425;BME280;64007;50.632;13.700;2023-03-01T13:11:57;98783.84;;;10.68;40.60
75425;BME280;64007;50.632;13.700;2023-03-01T13:16:53;98785.94;;;11.27;40.52
75425;BME280;64007;50.632;13.700;2023-03-01T13:19:20;98781.53;;;11.75;38.46
75425;BME280;64007;50.632;13.700;2023-03-01T13:21:49;98778.28;;;11.59;38.64
75425;BME280;64007;50.632;13.700;2023-03-01T13:29:53;98772.94;;;12.54;37.58
75425;BME280;64007;50.632;13.700;2023-03-01T13:32:32;98775.06;;;12.38;37.51
75425;BME280;64007;50.632;13.700;2023-03-01T13:35:00;98773.06;;;12.18;36.10
75425;BME280;64007;50.632;13.700;2023-03-01T13:37:29;98779.72;;;12.47;37.42
75425;BME280;64007;50.632;13.700;2023-03-01T13:40:02;98784.88;;;12.95;35.79
75425;BME280;64007;50.632;13.700;2023-03-01T13:42:33;98792.16;;;12.93;36.56
75425;BME280;64007;50.632;13.700;2023-03-01T13:45:00;98787.06;;;13.01;35.95
75425;BME280;64007;50.632;13.700;2023-03-01T13:47:27;98782.44;;;13.14;36.38
75425;BME280;64007;50.632;13.700;2023-03-01T13:49:58;98773.00;;;13.44;35.64
75425;BME280;64007;50.632;13.700;2023-03-01T13:52:39;98771.03;;;13.57;34.46
75425;BME280;64007;50.632;13.700;2023-03-01T13:55:32;98767.34;;;13.80;33.96
75425;BME280;64007;50.632;13.700;2023-03-01T13:58:03;98764.97;;;13.66;32.99
75425;BME280;64007;50.632;13.700;2023-03-01T14:00:39;98759.47;;;13.79;33.81
75425;BME280;64007;50.632;13.700;2023-03-01T14:05:40;98753.09;;;13.37;33.12
75425;BME280;64007;50.632;13.700;2023-03-01T14:08:22;98747.72;;;13.59;33.18
75425;BME280;64007;50.632;13.700;2023-03-01T14:16:23;98746.75;;;13.60;34.57
75425;BME280;64007;50.632;13.700;2023-03-01T14:21:33;98745.00;;;14.34;32.57
75425;BME280;64007;50.632;13.700;2023-03-01T14:23:59;98740.50;;;14.77;32.79
75425;BME280;64007;50.632;13.700;2023-03-01T14:26:24;98740.31;;;14.89;32.44
75425;BME280;64007;50.632;13.700;2023-03-01T14:28:51;98741.03;;;15.22;31.70
75425;BME280;64007;50.632;13.700;2023-03-01T14:33:55;98733.97;;;14.90;31.23
75425;BME280;64007;50.632;13.700;2023-03-01T14:36:26;98742.19;;;14.98;31.40
75425;BME280;64007;50.632;13.700;2023-03-01T14:38:53;98750.78;;;15.23;32.05
75425;BME280;64007;50.632;13.700;2023-03-01T14:41:24;98743.88;;;15.30;32.07
75425;BME280;64007;50.632;13.700;2023-03-01T14:43:55;98745.88;;;15.38;31.64
75425;BME280;64007;50.632;13.700;2023-03-01T14:46:28;98740.50;;;15.28;31.30
75425;BME280;64007;50.632;13.700;2023-03-01T14:49:02;98746.72;;;14.77;31.34
75425;BME280;64007;50.632;13.700;2023-03-01T14:51:28;98737.97;;;14.75;31.33
75425;BME280;64007;50.632;13.700;2023-03-01T14:53:55;98734.41;;;14.65;32.82
75425;BME280;64007;50.632;13.700;2023-03-01T14:56:21;98726.38;;;14.65;32.45
75425;BME280;64007;50.632;13.700;2023-03-01T14:58:51;98723.50;;;14.57;32.41